Time;durP1;ratioP1;P1;durP2;ratioP2;P2;SDS_P1;SDS_P2;PMS_P1;PMS_P2;Temp;Humidity;BMP_temperature;BMP_pressure;BME280_temperature;BME280_humidity;BME280_pressure;Samples;Min_cycle;Max_cycle;Signal;HPM_P1;HPM_P2
2023/09/11 00:01:10;;;;;;;;;;;20.20;99.90;;;;;;4997166;28;19967;-66
2023/09/11 00:03:35;;;;;;;;;;;20.10;99.90;;;;;;4987439;28;19905;-65
2023/09/11 00:06:04;;;;;;;;;;;20.10;99.90;;;;;;5002132;28;19910;-66
2023/09/11 00:08:29;;;;;;;;;;;20.10;99.90;;;;;;5000788;28;20002;-65
2023/09/11 00:10:55;;;;;;;;;;;20.10;99.90;;;;;;5000279;28;19987;-65
2023/09/11 00:13:20;;;;;;;;;;;20.10;99.90;;;;;;4997726;28;19916;-65
2023/09/11 00:15:46;;;;;;;;;;;20.00;99.90;;;;;;5004013;28;19913;-65
2023/09/11 00:18:12;;;;;;;;;;;20.00;99.90;;;;;;5006209;28;20238;-65
2023/09/11 00:20:37;;;;;;;;;;;20.10;99.90;;;;;;5008309;28;20257;-65
2023/09/11 00:23:03;;;;;;;;;;;20.00;99.90;;;;;;4997977;28;19909;-66
2023/09/11 00:25:28;;;;;;;;;;;20.10;99.90;;;;;;5008700;28;19909;-65
2023/09/11 00:27:54;;;;;;;;;;;20.10;99.90;;;;;;4989366;28;19988;-65
2023/09/11 00:30:20;;;;;;;;;;;20.00;99.90;;;;;;4980505;28;20472;-65
2023/09/11 00:32:45;;;;;;;;;;;20.00;99.90;;;;;;5009522;28;19922;-65
2023/09/11 00:35:11;;;;;;;;;;;20.00;99.90;;;;;;5003536;28;19905;-65
2023/09/11 00:37:36;;;;;;;;;;;19.90;99.90;;;;;;5000872;28;19984;-66
2023/09/11 00:40:03;;;;;;;;;;;19.90;99.90;;;;;;4987960;28;19909;-65
2023/09/11 00:42:29;;;;;;;;;;;19.90;99.90;;;;;;4996394;28;20398;-66
2023/09/11 00:44:54;;;;;;;;;;;20.00;99.90;;;;;;5004603;28;19909;-65
2023/09/11 00:47:20;;;;;;;;;;;19.90;99.90;;;;;;4987471;28;19912;-65
2023/09/11 00:49:46;;;;;;;;;;;19.90;99.90;;;;;;4979702;28;19920;-65
2023/09/11 00:52:12;;;;;;;;;;;19.90;99.90;;;;;;5001999;28;19912;-65
2023/09/11 00:54:38;;;;;;;;;;;19.90;99.90;;;;;;5006281;28;19971;-65
2023/09/11 00:57:04;;;;;;;;;;;19.70;99.90;;;;;;5000918;28;19952;-65
2023/09/11 00:59:30;;;;;;;;;;;19.60;99.90;;;;;;5001652;28;19940;-65
2023/09/11 01:01:55;;;;;;;;;;;19.60;99.90;;;;;;5001169;28;20388;-65
2023/09/11 01:04:21;;;;;;;;;;;19.50;99.90;;;;;;5004660;28;19913;-65
2023/09/11 01:06:47;;;;;;;;;;;19.50;99.90;;;;;;4982108;28;20273;-65
2023/09/11 01:09:13;;;;;;;;;;;19.50;99.90;;;;;;5009209;28;19916;-65
2023/09/11 01:11:38;;;;;;;;;;;19.40;99.90;;;;;;4982907;28;19931;-65
2023/09/11 01:14:04;;;;;;;;;;;19.40;99.90;;;;;;5002412;28;19905;-65
2023/09/11 01:16:30;;;;;;;;;;;19.40;99.90;;;;;;5001654;28;20115;-65
2023/09/11 01:19:02;;;;;;;;;;;19.40;99.90;;;;;;4987202;28;19913;-66
2023/09/11 01:21:37;;;;;;;;;;;19.40;99.90;;;;;;4999595;28;19909;-65
2023/09/11 01:24:03;;;;;;;;;;;19.40;99.90;;;;;;4982818;28;20281;-65
2023/09/11 01:26:31;;;;;;;;;;;19.40;99.90;;;;;;5002219;28;19909;-65
2023/09/11 01:28:57;;;;;;;;;;;19.30;99.90;;;;;;5002426;28;20602;-65
2023/09/11 01:31:24;;;;;;;;;;;19.30;99.90;;;;;;5002359;28;19920;-65
2023/09/11 01:33:53;;;;;;;;;;;19.30;99.90;;;;;;5001836;28;20253;-65
2023/09/11 01:36:19;;;;;;;;;;;19.30;99.90;;;;;;4995178;28;19933;-65
2023/09/11 01:38:44;;;;;;;;;;;19.20;99.90;;;;;;4982909;28;19913;-65
2023/09/11 01:41:13;;;;;;;;;;;19.20;99.90;;;;;;5000561;28;19925;-65
2023/09/11 01:43:40;;;;;;;;;;;19.10;99.90;;;;;;5001217;28;20003;-65
2023/09/11 01:46:06;;;;;;;;;;;19.10;99.90;;;;;;4983687;28;19909;-65
2023/09/11 01:48:32;;;;;;;;;;;19.10;99.90;;;;;;5004486;28;19905;-65
2023/09/11 01:50:57;;;;;;;;;;;19.10;99.90;;;;;;5000484;28;19944;-65
2023/09/11 01:53:23;;;;;;;;;;;19.00;99.90;;;;;;4998988;28;19913;-65
2023/09/11 01:55:49;;;;;;;;;;;19.00;99.90;;;;;;5010366;28;20007;-65
2023/09/11 01:58:15;;;;;;;;;;;19.10;99.90;;;;;;5008194;28;19914;-65
2023/09/11 02:00:40;;;;;;;;;;;19.10;99.90;;;;;;5005308;28;19936;-65
2023/09/11 02:03:06;;;;;;;;;;;19.10;99.90;;;;;;5006486;28;19905;-65
2023/09/11 02:05:31;;;;;;;;;;;19.00;99.90;;;;;;5001578;28;20019;-65
2023/09/11 02:07:57;;;;;;;;;;;19.00;99.90;;;;;;5001082;28;20254;-65
2023/09/11 02:10:22;;;;;;;;;;;19.00;99.90;;;;;;5011491;28;19909;-65
2023/09/11 02:12:48;;;;;;;;;;;19.00;99.90;;;;;;5003224;28;19992;-65
2023/09/11 02:15:14;;;;;;;;;;;19.00;99.90;;;;;;5002623;28;20660;-65
2023/09/11 02:17:39;;;;;;;;;;;19.00;99.90;;;;;;5006756;28;19913;-65
2023/09/11 02:20:05;;;;;;;;;;;19.00;99.90;;;;;;4999100;28;19910;-65
2023/09/11 02:22:31;;;;;;;;;;;18.90;99.90;;;;;;5004695;28;19929;-65
2023/09/11 02:24:56;;;;;;;;;;;18.90;99.90;;;;;;4990809;28;20486;-65
2023/09/11 02:27:22;;;;;;;;;;;18.90;99.90;;;;;;5009967;28;19917;-66
2023/09/11 02:29:47;;;;;;;;;;;18.90;99.90;;;;;;5006792;28;19952;-65
2023/09/11 02:32:13;;;;;;;;;;;18.90;99.90;;;;;;5003514;28;20432;-65
2023/09/11 02:34:38;;;;;;;;;;;18.80;99.90;;;;;;5008514;28;20360;-65
2023/09/11 02:37:04;;;;;;;;;;;18.80;99.90;;;;;;4999399;28;19914;-65
2023/09/11 02:39:30;;;;;;;;;;;18.80;99.90;;;;;;5011743;28;19909;-65
2023/09/11 02:41:55;;;;;;;;;;;18.80;99.90;;;;;;4986796;28;20006;-65
2023/09/11 02:44:21;;;;;;;;;;;18.80;99.90;;;;;;5002389;28;19940;-65
2023/09/11 02:46:46;;;;;;;;;;;18.80;99.90;;;;;;5004982;28;19914;-65
2023/09/11 02:49:12;;;;;;;;;;;18.70;99.90;;;;;;5002473;28;19916;-66
2023/09/11 02:51:37;;;;;;;;;;;18.70;99.90;;;;;;4989266;28;19916;-65
2023/09/11 02:54:03;;;;;;;;;;;18.70;99.90;;;;;;4984876;28;19909;-65
2023/09/11 02:56:28;;;;;;;;;;;18.70;99.90;;;;;;5007911;28;19931;-65
2023/09/11 02:58:54;;;;;;;;;;;18.70;99.90;;;;;;5005583;28;19905;-65
2023/09/11 03:01:19;;;;;;;;;;;18.70;99.90;;;;;;5004405;28;20008;-65
2023/09/11 03:03:46;;;;;;;;;;;18.60;99.90;;;;;;5009089;28;19914;-65
2023/09/11 03:06:11;;;;;;;;;;;18.60;99.90;;;;;;4986791;28;19905;-65
2023/09/11 03:08:37;;;;;;;;;;;18.60;99.90;;;;;;5002263;28;19909;-65
2023/09/11 03:11:06;;;;;;;;;;;18.60;99.90;;;;;;5004290;28;20043;-65
2023/09/11 03:13:32;;;;;;;;;;;18.70;99.90;;;;;;4998054;28;19952;-65
2023/09/11 03:16:11;;;;;;;;;;;18.70;99.90;;;;;;5006191;28;19909;-65
2023/09/11 03:18:36;;;;;;;;;;;18.70;99.90;;;;;;4987602;28;19913;-65
2023/09/11 03:21:03;;;;;;;;;;;18.70;99.90;;;;;;5007131;28;19919;-65
2023/09/11 03:23:29;;;;;;;;;;;18.70;99.90;;;;;;5004090;28;20410;-65
2023/09/11 03:25:54;;;;;;;;;;;18.60;99.90;;;;;;5009967;28;20012;-65
2023/09/11 03:28:20;;;;;;;;;;;18.60;99.90;;;;;;4983635;28;20265;-65
2023/09/11 03:30:45;;;;;;;;;;;18.60;99.90;;;;;;5001796;28;20376;-65
2023/09/11 03:33:11;;;;;;;;;;;18.60;99.90;;;;;;5008971;28;20392;-65
2023/09/11 03:35:36;;;;;;;;;;;18.50;99.90;;;;;;5009522;28;19963;-65
2023/09/11 03:38:02;;;;;;;;;;;18.50;99.90;;;;;;5004204;28;19909;-66
2023/09/11 03:40:28;;;;;;;;;;;18.50;99.90;;;;;;4988591;28;19992;-65
2023/09/11 03:42:54;;;;;;;;;;;18.50;99.90;;;;;;5001735;28;20015;-65
2023/09/11 03:45:20;;;;;;;;;;;18.50;99.90;;;;;;4985640;28;19992;-65
2023/09/11 03:47:46;;;;;;;;;;;18.40;99.90;;;;;;5003676;28;19914;-65
2023/09/11 03:50:11;;;;;;;;;;;18.40;99.90;;;;;;5005001;28;20003;-65
2023/09/11 03:52:37;;;;;;;;;;;18.40;99.90;;;;;;4989653;28;19909;-65
2023/09/11 03:55:03;;;;;;;;;;;18.40;99.90;;;;;;5009500;28;20484;-65
2023/09/11 03:57:28;;;;;;;;;;;18.40;99.90;;;;;;5002632;28;19912;-65
2023/09/11 03:59:54;;;;;;;;;;;18.30;99.90;;;;;;5003080;28;19910;-65
2023/09/11 04:02:20;;;;;;;;;;;18.30;99.90;;;;;;5001015;28;20673;-65
2023/09/11 04:04:45;;;;;;;;;;;18.20;99.90;;;;;;5000706;28;19913;-65
2023/09/11 04:07:11;;;;;;;;;;;18.30;99.90;;;;;;5003473;28;19910;-65
2023/09/11 04:09:36;;;;;;;;;;;18.20;99.90;;;;;;5004653;28;20351;-65
2023/09/11 04:12:02;;;;;;;;;;;18.20;99.90;;;;;;4998036;28;20391;-65
2023/09/11 04:14:28;;;;;;;;;;;18.20;99.90;;;;;;4998660;28;20354;-66
2023/09/11 04:16:53;;;;;;;;;;;18.20;99.90;;;;;;5007074;28;19905;-65
2023/09/11 04:19:19;;;;;;;;;;;18.20;99.90;;;;;;5001886;28;19916;-65
2023/09/11 04:21:44;;;;;;;;;;;18.20;99.90;;;;;;5003295;28;20029;-65
2023/09/11 04:24:12;;;;;;;;;;;18.30;99.90;;;;;;5003610;28;19916;-66
2023/09/11 04:26:39;;;;;;;;;;;18.20;99.90;;;;;;4987340;28;19909;-65
2023/09/11 04:29:05;;;;;;;;;;;18.20;99.90;;;;;;4999294;28;19905;-65
2023/09/11 04:31:30;;;;;;;;;;;18.20;99.90;;;;;;4999637;28;19913;-65
2023/09/11 04:33:56;;;;;;;;;;;18.20;99.90;;;;;;5001305;28;19917;-72
2023/09/11 04:36:21;;;;;;;;;;;18.20;99.90;;;;;;4982100;28;19916;-72
2023/09/11 04:38:47;;;;;;;;;;;18.30;99.90;;;;;;5003950;28;19907;-71
2023/09/11 04:41:14;;;;;;;;;;;18.30;99.90;;;;;;5006451;28;19936;-70
2023/09/11 04:43:39;;;;;;;;;;;18.30;99.90;;;;;;5001567;28;19936;-72
2023/09/11 04:46:05;;;;;;;;;;;18.30;99.90;;;;;;5000933;28;20608;-72
2023/09/11 04:48:30;;;;;;;;;;;18.40;99.90;;;;;;5004098;28;20115;-75
2023/09/11 04:50:56;;;;;;;;;;;18.50;99.90;;;;;;4987628;28;19909;-75
2023/09/11 04:53:21;;;;;;;;;;;18.50;99.90;;;;;;5001001;28;19956;-75
2023/09/11 04:55:47;;;;;;;;;;;18.60;99.90;;;;;;4991151;28;19913;-73
2023/09/11 04:58:13;;;;;;;;;;;18.70;99.90;;;;;;5000526;28;20003;-72
2023/09/11 05:00:40;;;;;;;;;;;18.80;99.90;;;;;;5001213;28;19909;-72
2023/09/11 05:03:05;;;;;;;;;;;18.90;99.90;;;;;;5006380;28;19909;-70
2023/09/11 05:05:31;;;;;;;;;;;19.10;99.90;;;;;;5002136;28;19963;-69
2023/09/11 05:07:56;;;;;;;;;;;19.40;99.90;;;;;;5000157;28;19920;-71
2023/09/11 05:10:22;;;;;;;;;;;19.80;99.90;;;;;;5004151;28;19975;-68
2023/09/11 05:12:47;;;;;;;;;;;20.20;99.90;;;;;;4982387;28;19917;-71
2023/09/11 05:15:14;;;;;;;;;;;20.40;99.90;;;;;;5000781;28;19905;-72
2023/09/11 05:17:39;;;;;;;;;;;20.50;99.90;;;;;;5004699;28;19955;-71
2023/09/11 05:20:06;;;;;;;;;;;20.60;99.90;;;;;;5004741;28;19909;-70
2023/09/11 05:22:32;;;;;;;;;;;20.90;99.90;;;;;;5000113;28;19913;-65
2023/09/11 05:24:59;;;;;;;;;;;21.30;99.90;;;;;;5002638;28;19905;-64
2023/09/11 05:27:25;;;;;;;;;;;21.60;99.90;;;;;;5001144;28;19909;-66
2023/09/11 05:29:50;;;;;;;;;;;21.80;99.90;;;;;;4986046;28;20691;-64
2023/09/11 05:32:18;;;;;;;;;;;22.10;99.90;;;;;;5002524;28;19913;-64
2023/09/11 05:34:43;;;;;;;;;;;22.70;99.90;;;;;;5008517;28;20284;-66
2023/09/11 05:37:09;;;;;;;;;;;23.20;99.90;;;;;;4995726;28;19960;-64
2023/09/11 05:39:34;;;;;;;;;;;23.70;99.90;;;;;;4983077;28;19909;-64
2023/09/11 05:42:00;;;;;;;;;;;23.40;99.90;;;;;;4997740;28;19920;-65
2023/09/11 05:44:25;;;;;;;;;;;23.50;99.90;;;;;;5008280;28;19916;-66
2023/09/11 05:46:51;;;;;;;;;;;23.70;99.90;;;;;;4985462;28;20555;-64
2023/09/11 05:49:16;;;;;;;;;;;24.10;99.90;;;;;;4984736;28;19932;-63
2023/09/11 05:51:43;;;;;;;;;;;24.50;99.90;;;;;;5002692;28;20245;-64
2023/09/11 05:54:10;;;;;;;;;;;24.50;99.90;;;;;;5004820;28;19912;-64
2023/09/11 05:56:36;;;;;;;;;;;24.40;99.90;;;;;;4997218;28;19920;-65
2023/09/11 05:59:01;;;;;;;;;;;24.60;99.90;;;;;;5005122;28;19905;-65
2023/09/11 06:01:27;;;;;;;;;;;24.70;99.90;;;;;;4979514;28;19920;-64
2023/09/11 06:03:54;;;;;;;;;;;24.60;99.90;;;;;;5005475;28;20012;-64
2023/09/11 06:06:19;;;;;;;;;;;24.80;99.90;;;;;;4982533;28;19909;-64
2023/09/11 06:08:45;;;;;;;;;;;25.20;99.90;;;;;;5004135;28;21303;-64
2023/09/11 06:11:10;;;;;;;;;;;25.40;99.90;;;;;;5006019;28;19952;-63
2023/09/11 06:13:36;;;;;;;;;;;25.90;99.70;;;;;;4999929;28;19905;-64
2023/09/11 06:16:02;;;;;;;;;;;25.80;99.10;;;;;;5006654;28;19914;-65
2023/09/11 06:18:27;;;;;;;;;;;26.00;99.10;;;;;;4997577;28;20694;-64
2023/09/11 06:20:53;;;;;;;;;;;26.20;98.90;;;;;;4983490;28;19918;-64
2023/09/11 06:23:18;;;;;;;;;;;26.30;97.90;;;;;;5000509;28;19906;-63
2023/09/11 06:25:44;;;;;;;;;;;26.50;98.10;;;;;;5000769;28;19909;-66
2023/09/11 06:28:10;;;;;;;;;;;26.30;97.70;;;;;;4997550;28;20004;-63
2023/09/11 06:30:35;;;;;;;;;;;26.60;97.70;;;;;;5000435;28;19913;-65
2023/09/11 06:33:01;;;;;;;;;;;27.20;96.80;;;;;;4985209;28;20380;-64
2023/09/11 06:35:27;;;;;;;;;;;27.80;96.30;;;;;;5000760;28;19913;-66
2023/09/11 06:37:53;;;;;;;;;;;28.30;96.10;;;;;;4998047;28;20022;-65
2023/09/11 06:40:18;;;;;;;;;;;28.70;94.30;;;;;;4988592;28;19913;-64
2023/09/11 06:42:44;;;;;;;;;;;28.70;93.80;;;;;;4986345;28;19914;-72
2023/09/11 06:45:10;;;;;;;;;;;28.00;94.20;;;;;;5005056;28;19956;-72
2023/09/11 06:47:36;;;;;;;;;;;28.30;93.90;;;;;;5010568;28;19910;-72
2023/09/11 06:50:01;;;;;;;;;;;28.90;93.20;;;;;;4987809;28;20402;-72
2023/09/11 06:52:27;;;;;;;;;;;29.50;92.60;;;;;;5001644;28;20356;-72
2023/09/11 06:54:54;;;;;;;;;;;30.20;91.70;;;;;;5008879;28;19939;-72
2023/09/11 06:57:20;;;;;;;;;;;31.00;90.70;;;;;;5009523;28;19939;-73
2023/09/11 06:59:45;;;;;;;;;;;31.50;89.90;;;;;;5005352;28;19914;-72
2023/09/11 07:02:11;;;;;;;;;;;30.80;88.40;;;;;;5004484;28;19914;-72
2023/09/11 07:04:36;;;;;;;;;;;30.90;89.40;;;;;;5005244;28;19921;-72
2023/09/11 07:07:02;;;;;;;;;;;32.40;86.00;;;;;;4985837;28;20573;-74
2023/09/11 07:09:28;;;;;;;;;;;33.20;82.90;;;;;;4993080;28;19911;-72
2023/09/11 07:11:53;;;;;;;;;;;32.90;82.80;;;;;;4986226;28;19913;-73
2023/09/11 07:14:19;;;;;;;;;;;33.60;81.40;;;;;;5008384;28;19917;-73
2023/09/11 07:16:45;;;;;;;;;;;33.50;80.10;;;;;;5002785;28;21114;-73
2023/09/11 07:19:11;;;;;;;;;;;33.00;80.10;;;;;;5003637;28;20035;-73
2023/09/11 07:21:36;;;;;;;;;;;33.90;78.60;;;;;;5011489;28;19917;-72
2023/09/11 07:24:02;;;;;;;;;;;33.80;78.70;;;;;;5004432;28;20363;-72
2023/09/11 07:26:27;;;;;;;;;;;34.70;75.90;;;;;;4998922;28;19912;-72
2023/09/11 07:28:57;;;;;;;;;;;33.70;76.10;;;;;;5010793;28;19948;-72
2023/09/11 07:31:23;;;;;;;;;;;33.80;77.10;;;;;;4982232;28;19924;-73
2023/09/11 07:33:49;;;;;;;;;;;34.20;76.40;;;;;;5004903;28;19913;-72
2023/09/11 07:36:16;;;;;;;;;;;34.90;75.20;;;;;;4983412;28;19962;-72
2023/09/11 07:38:44;;;;;;;;;;;34.60;74.90;;;;;;5003154;28;19917;-72
2023/09/11 07:41:19;;;;;;;;;;;33.70;74.90;;;;;;5002823;28;20221;-72
2023/09/11 07:43:48;;;;;;;;;;;33.90;74.70;;;;;;5006570;28;21212;-72
2023/09/11 07:46:14;;;;;;;;;;;33.60;75.00;;;;;;5004887;28;20285;-72
2023/09/11 07:48:40;;;;;;;;;;;34.00;75.30;;;;;;5003409;28;19911;-72
2023/09/11 07:51:05;;;;;;;;;;;34.50;74.10;;;;;;5003426;28;19999;-72
2023/09/11 07:53:31;;;;;;;;;;;34.90;73.80;;;;;;5000983;28;19905;-72
2023/09/11 07:55:57;;;;;;;;;;;34.50;73.30;;;;;;5003728;28;19913;-72
2023/09/11 07:58:23;;;;;;;;;;;36.00;71.80;;;;;;5002458;28;20004;-73
2023/09/11 08:00:49;;;;;;;;;;;35.10;72.70;;;;;;5002800;28;19960;-72
2023/09/11 08:03:14;;;;;;;;;;;36.90;71.20;;;;;;5001701;28;19947;-72
2023/09/11 08:05:40;;;;;;;;;;;33.90;72.10;;;;;;5007080;28;19912;-72
2023/09/11 08:08:05;;;;;;;;;;;33.00;74.50;;;;;;5000478;28;19906;-73
2023/09/11 08:10:31;;;;;;;;;;;33.90;74.90;;;;;;5002304;28;20245;-73
2023/09/11 08:12:56;;;;;;;;;;;34.30;72.60;;;;;;5002154;28;19909;-73
2023/09/11 08:15:22;;;;;;;;;;;35.30;72.80;;;;;;5000779;28;20044;-73
2023/09/11 08:17:47;;;;;;;;;;;35.20;71.70;;;;;;5008773;28;20625;-73
2023/09/11 08:20:14;;;;;;;;;;;36.10;70.10;;;;;;5006770;28;19912;-72
2023/09/11 08:22:41;;;;;;;;;;;35.90;69.70;;;;;;5005237;28;19915;-73
2023/09/11 08:25:08;;;;;;;;;;;35.00;71.30;;;;;;5004669;28;19919;-73
2023/09/11 08:27:34;;;;;;;;;;;36.10;69.80;;;;;;4999441;28;20036;-72
2023/09/11 08:30:00;;;;;;;;;;;35.10;70.00;;;;;;5004283;28;19925;-73
2023/09/11 08:32:25;;;;;;;;;;;34.00;71.70;;;;;;5007210;28;19913;-73
2023/09/11 08:34:50;;;;;;;;;;;34.00;72.10;;;;;;5001333;28;20873;-72
2023/09/11 08:37:16;;;;;;;;;;;35.80;70.80;;;;;;5003343;28;20025;-73
2023/09/11 08:39:41;;;;;;;;;;;37.40;68.30;;;;;;5005063;28;20381;-73
2023/09/11 08:42:08;;;;;;;;;;;36.10;68.40;;;;;;5003193;28;19910;-73
2023/09/11 08:44:34;;;;;;;;;;;37.70;67.60;;;;;;4998974;28;19905;-73
2023/09/11 08:47:03;;;;;;;;;;;38.00;66.00;;;;;;5007278;28;20601;-74
2023/09/11 08:49:32;;;;;;;;;;;37.90;65.80;;;;;;5000911;28;19963;-73
2023/09/11 08:51:59;;;;;;;;;;;37.10;65.70;;;;;;4981899;28;20383;-73
2023/09/11 08:54:29;;;;;;;;;;;37.00;66.40;;;;;;4997157;28;20475;-73
2023/09/11 08:56:55;;;;;;;;;;;36.60;66.30;;;;;;5008898;28;19913;-73
2023/09/11 08:59:21;;;;;;;;;;;35.00;67.10;;;;;;5001812;28;19940;-72
2023/09/11 09:01:48;;;;;;;;;;;34.60;68.40;;;;;;5001162;28;19917;-71
2023/09/11 09:04:15;;;;;;;;;;;34.90;69.00;;;;;;5005834;28;20264;-71
2023/09/11 09:06:42;;;;;;;;;;;34.80;69.00;;;;;;5000467;28;20722;-73
2023/09/11 09:09:08;;;;;;;;;;;36.40;68.00;;;;;;5007162;28;19905;-73
2023/09/11 09:11:34;;;;;;;;;;;36.80;67.00;;;;;;4983462;28;19906;-73
2023/09/11 09:14:05;;;;;;;;;;;35.60;66.70;;;;;;5007720;28;19909;-73
2023/09/11 09:16:31;;;;;;;;;;;35.30;68.70;;;;;;5003741;28;19909;-72
2023/09/11 09:18:56;;;;;;;;;;;34.00;69.30;;;;;;5004720;28;19911;-72
2023/09/11 09:21:25;;;;;;;;;;;32.40;72.10;;;;;;5003011;28;19917;-73
2023/09/11 09:23:54;;;;;;;;;;;32.70;73.10;;;;;;5004054;28;19917;-72
2023/09/11 09:26:21;;;;;;;;;;;32.30;72.90;;;;;;5003705;28;20248;-72
2023/09/11 09:28:47;;;;;;;;;;;33.90;72.00;;;;;;5002049;28;19914;-74
2023/09/11 09:31:23;;;;;;;;;;;34.00;71.90;;;;;;5000166;28;19909;-73
2023/09/11 09:33:50;;;;;;;;;;;35.40;70.20;;;;;;5000713;28;19920;-73
2023/09/11 09:36:16;;;;;;;;;;;34.80;70.10;;;;;;4999331;28;20556;-73
2023/09/11 09:38:43;;;;;;;;;;;36.10;69.40;;;;;;5004433;28;19940;-73
2023/09/11 09:41:10;;;;;;;;;;;37.10;67.50;;;;;;4997520;28;19996;-73
2023/09/11 09:43:35;;;;;;;;;;;35.90;68.20;;;;;;5002673;28;19915;-72
2023/09/11 09:46:16;;;;;;;;;;;36.50;68.00;;;;;;5002746;28;19995;-72
2023/09/11 09:48:42;;;;;;;;;;;36.40;67.10;;;;;;5001718;28;19905;-73
2023/09/11 09:51:07;;;;;;;;;;;35.10;68.50;;;;;;4984269;28;19967;-73
2023/09/11 09:53:41;;;;;;;;;;;35.30;68.80;;;;;;4996807;28;19908;-73
2023/09/11 09:56:07;;;;;;;;;;;35.10;69.10;;;;;;5002474;28;19975;-73
2023/09/11 09:58:40;;;;;;;;;;;36.50;68.50;;;;;;5005418;28;20011;-73
2023/09/11 10:01:10;;;;;;;;;;;36.50;67.70;;;;;;4999468;28;20095;-73
2023/09/11 10:03:39;;;;;;;;;;;38.20;66.10;;;;;;5004121;28;19917;-74
2023/09/11 10:06:13;;;;;;;;;;;38.90;65.00;;;;;;5000879;28;19909;-74
2023/09/11 10:08:39;;;;;;;;;;;39.20;64.50;;;;;;5004277;28;19915;-73
2023/09/11 10:11:04;;;;;;;;;;;40.20;63.60;;;;;;4982021;28;20008;-73
2023/09/11 10:13:33;;;;;;;;;;;39.80;63.10;;;;;;4999614;28;19910;-72
2023/09/11 10:15:59;;;;;;;;;;;38.40;63.80;;;;;;5007274;28;19913;-74
2023/09/11 10:18:25;;;;;;;;;;;38.90;64.00;;;;;;5003167;28;19909;-73
2023/09/11 10:20:51;;;;;;;;;;;37.90;63.80;;;;;;4990016;28;20387;-74
2023/09/11 10:23:16;;;;;;;;;;;38.70;64.20;;;;;;5004577;28;19917;-72
2023/09/11 10:25:44;;;;;;;;;;;39.90;63.00;;;;;;5000215;28;19910;-73
2023/09/11 10:28:17;;;;;;;;;;;39.40;62.80;;;;;;4998184;28;19913;-73
2023/09/11 10:30:45;;;;;;;;;;;38.50;62.60;;;;;;5005042;28;19927;-74
2023/09/11 10:33:20;;;;;;;;;;;37.50;64.70;;;;;;4985972;28;20561;-72
2023/09/11 10:35:47;;;;;;;;;;;37.20;64.90;;;;;;5005452;28;19913;-73
2023/09/11 10:38:14;;;;;;;;;;;37.50;64.40;;;;;;4998921;28;19916;-73
2023/09/11 10:40:41;;;;;;;;;;;38.90;63.70;;;;;;5000423;28;19909;-74
2023/09/11 10:43:07;;;;;;;;;;;39.30;63.30;;;;;;4987497;28;19924;-73
2023/09/11 10:45:33;;;;;;;;;;;38.00;63.50;;;;;;5003334;28;19905;-73
2023/09/11 10:47:58;;;;;;;;;;;38.30;63.20;;;;;;5008358;28;19910;-74
2023/09/11 10:50:28;;;;;;;;;;;38.40;63.70;;;;;;5009136;28;20728;-73
2023/09/11 10:52:55;;;;;;;;;;;38.20;63.20;;;;;;4999631;28;19912;-71
2023/09/11 10:55:22;;;;;;;;;;;39.10;62.30;;;;;;5008374;28;19920;-71
2023/09/11 10:57:50;;;;;;;;;;;36.00;63.90;;;;;;5006311;28;19996;-71
2023/09/11 11:00:15;;;;;;;;;;;33.50;67.70;;;;;;5002161;28;20300;-71
2023/09/11 11:02:42;;;;;;;;;;;32.50;69.10;;;;;;4981017;28;19917;-70
2023/09/11 11:05:12;;;;;;;;;;;31.10;71.60;;;;;;5003517;28;20000;-71
2023/09/11 11:07:38;;;;;;;;;;;30.50;73.00;;;;;;5001755;28;19909;-71
2023/09/11 11:10:04;;;;;;;;;;;30.40;73.70;;;;;;5000915;28;19909;-70
2023/09/11 11:12:31;;;;;;;;;;;30.50;73.60;;;;;;4985767;28;19909;-71
2023/09/11 11:15:15;;;;;;;;;;;30.30;72.70;;;;;;4997913;28;19919;-70
2023/09/11 11:17:41;;;;;;;;;;;30.40;73.70;;;;;;5005480;28;19943;-70
2023/09/11 11:20:07;;;;;;;;;;;29.50;74.80;;;;;;4999082;28;20369;-69
2023/09/11 11:22:34;;;;;;;;;;;29.50;75.20;;;;;;5001966;28;19971;-70
2023/09/11 11:25:03;;;;;;;;;;;29.60;75.60;;;;;;4996530;28;19914;-70
2023/09/11 11:27:29;;;;;;;;;;;30.10;74.50;;;;;;4998038;28;20464;-71
2023/09/11 11:29:56;;;;;;;;;;;29.80;75.00;;;;;;4994434;28;19905;-70
2023/09/11 11:32:21;;;;;;;;;;;29.90;74.30;;;;;;5002906;28;19909;-69
2023/09/11 11:34:48;;;;;;;;;;;30.40;74.40;;;;;;4999322;28;20362;-70
2023/09/11 11:37:16;;;;;;;;;;;30.70;73.90;;;;;;4991955;28;20356;-71
2023/09/11 11:39:42;;;;;;;;;;;31.00;73.60;;;;;;5001615;28;20375;-71
2023/09/11 11:42:07;;;;;;;;;;;31.30;72.40;;;;;;4987169;28;19920;-70
2023/09/11 11:44:34;;;;;;;;;;;31.00;72.80;;;;;;5000329;28;19987;-70
2023/09/11 11:47:00;;;;;;;;;;;30.70;73.50;;;;;;4996858;28;20101;-70
2023/09/11 11:49:26;;;;;;;;;;;30.80;72.60;;;;;;5003918;28;20007;-70
2023/09/11 11:51:51;;;;;;;;;;;30.40;72.60;;;;;;4997876;28;19910;-70
2023/09/11 11:54:21;;;;;;;;;;;30.30;73.20;;;;;;4999450;28;19920;-72
2023/09/11 11:56:47;;;;;;;;;;;30.40;73.00;;;;;;5003909;28;19913;-70
2023/09/11 11:59:13;;;;;;;;;;;30.60;72.20;;;;;;4982300;28;19915;-72
2023/09/11 12:01:42;;;;;;;;;;;30.70;72.00;;;;;;4982594;28;20375;-72
2023/09/11 12:04:08;;;;;;;;;;;31.00;72.30;;;;;;4999273;28;20391;-71
2023/09/11 12:06:33;;;;;;;;;;;31.10;71.50;;;;;;5003554;28;19910;-70
2023/09/11 12:08:59;;;;;;;;;;;31.20;71.50;;;;;;5001994;28;20319;-71
2023/09/11 12:11:25;;;;;;;;;;;31.20;71.20;;;;;;5002308;28;19909;-71
2023/09/11 12:13:54;;;;;;;;;;;31.00;71.00;;;;;;5005097;28;19913;-71
2023/09/11 12:16:20;;;;;;;;;;;31.00;71.30;;;;;;5004775;28;19931;-71
2023/09/11 12:18:46;;;;;;;;;;;31.00;71.60;;;;;;5001177;28;19914;-71
2023/09/11 12:21:11;;;;;;;;;;;31.30;69.90;;;;;;5004827;28;19909;-71
2023/09/11 12:23:37;;;;;;;;;;;31.50;70.50;;;;;;5002957;28;20416;-72
2023/09/11 12:26:03;;;;;;;;;;;31.60;71.20;;;;;;4999609;28;19910;-71
2023/09/11 12:28:29;;;;;;;;;;;31.80;70.10;;;;;;5002530;28;19955;-72
2023/09/11 12:30:55;;;;;;;;;;;30.90;69.50;;;;;;4998308;28;19909;-70
2023/09/11 12:33:22;;;;;;;;;;;30.60;71.20;;;;;;5006824;28;19928;-71
2023/09/11 12:35:51;;;;;;;;;;;30.80;70.60;;;;;;4999328;28;19906;-71
2023/09/11 12:38:17;;;;;;;;;;;30.40;70.80;;;;;;4997619;28;19920;-72
2023/09/11 12:40:43;;;;;;;;;;;30.60;71.10;;;;;;5004276;28;19976;-71
2023/09/11 12:43:08;;;;;;;;;;;30.80;70.30;;;;;;4998915;28;19916;-71
2023/09/11 12:45:34;;;;;;;;;;;30.70;70.00;;;;;;5004426;28;19909;-70
2023/09/11 12:48:02;;;;;;;;;;;30.40;70.30;;;;;;4998037;28;19979;-71
2023/09/11 12:50:28;;;;;;;;;;;30.40;71.70;;;;;;5004125;28;19913;-71
2023/09/11 12:52:53;;;;;;;;;;;30.60;70.40;;;;;;4998716;28;19935;-70
2023/09/11 12:55:20;;;;;;;;;;;30.60;70.30;;;;;;5012183;28;20412;-72
2023/09/11 12:57:45;;;;;;;;;;;30.60;70.80;;;;;;5004323;28;19913;-71
2023/09/11 13:00:12;;;;;;;;;;;30.60;70.00;;;;;;5000895;28;19906;-71
2023/09/11 13:02:38;;;;;;;;;;;30.70;69.70;;;;;;4995416;28;19967;-72
2023/09/11 13:05:08;;;;;;;;;;;30.80;69.80;;;;;;4999503;28;19909;-71
2023/09/11 13:07:34;;;;;;;;;;;30.80;69.80;;;;;;4998457;28;19920;-70
2023/09/11 13:09:59;;;;;;;;;;;30.80;70.50;;;;;;5003559;28;20586;-72
2023/09/11 13:12:25;;;;;;;;;;;31.00;69.10;;;;;;4980300;28;20012;-70
2023/09/11 13:14:50;;;;;;;;;;;30.80;69.30;;;;;;5005793;28;19929;-72
2023/09/11 13:17:16;;;;;;;;;;;30.70;69.70;;;;;;4998227;28;19913;-65
2023/09/11 13:19:41;;;;;;;;;;;30.40;68.80;;;;;;4980907;28;19909;-65
2023/09/11 13:22:07;;;;;;;;;;;30.40;69.20;;;;;;5003637;28;20694;-65
2023/09/11 13:24:32;;;;;;;;;;;30.30;68.70;;;;;;4998996;28;19972;-66
2023/09/11 13:26:59;;;;;;;;;;;30.30;69.20;;;;;;4988352;28;20407;-65
2023/09/11 13:29:24;;;;;;;;;;;30.30;69.50;;;;;;5003767;28;19921;-65
2023/09/11 13:31:50;;;;;;;;;;;30.30;69.20;;;;;;5001140;28;21630;-64
2023/09/11 13:34:16;;;;;;;;;;;30.50;68.80;;;;;;5000547;28;20509;-65
2023/09/11 13:36:42;;;;;;;;;;;30.60;68.20;;;;;;4998842;28;19920;-66
2023/09/11 13:39:07;;;;;;;;;;;30.50;68.40;;;;;;5003233;28;20257;-66
2023/09/11 13:41:33;;;;;;;;;;;30.40;68.00;;;;;;5004499;28;20533;-65
2023/09/11 13:43:59;;;;;;;;;;;30.20;68.60;;;;;;5000704;28;19948;-65
2023/09/11 13:46:24;;;;;;;;;;;30.20;68.60;;;;;;5003990;28;19913;-65
2023/09/11 13:48:50;;;;;;;;;;;30.30;68.40;;;;;;4980873;28;19909;-65
2023/09/11 13:51:16;;;;;;;;;;;30.30;68.40;;;;;;4999676;28;20000;-64
2023/09/11 13:53:41;;;;;;;;;;;30.20;68.30;;;;;;5001986;28;20287;-65
2023/09/11 13:56:09;;;;;;;;;;;30.30;68.50;;;;;;5003723;28;19909;-65
2023/09/11 13:58:35;;;;;;;;;;;30.40;68.00;;;;;;4998762;28;20368;-65
2023/09/11 14:01:00;;;;;;;;;;;30.30;67.80;;;;;;4999609;28;19971;-64
2023/09/11 14:03:26;;;;;;;;;;;30.30;68.00;;;;;;4988379;28;20395;-64
2023/09/11 14:05:51;;;;;;;;;;;30.30;67.80;;;;;;4997765;28;19920;-65
2023/09/11 14:08:17;;;;;;;;;;;30.30;67.60;;;;;;4979198;28;20497;-65
2023/09/11 14:10:43;;;;;;;;;;;30.00;67.60;;;;;;5003545;28;19909;-65